Latest Weather Observations for Bega

IDN60801

Issued at 9:22 pm EST Wednesday 5 August 2020 (issued every 10 minutes, with the page automatically refreshed every 10 minutes)

About weather observations | Map of weather stations | Latest weather observations for NSW | Other Formats
Station Details ID: 069139 Name: BEGA AWS Lat: -36.67 Lon: 149.82 Height: 41.0 m
Data from the previous 72 hours. | See also: Recent months at Bega
Date/Time
EST
Temp
°C
App
Temp
°C
Dew
Point
°C
Rel
Hum
%
Delta-T
°C
Wind Press
QNH
hPa
Press
MSL
hPa
Rain since
9am
mm
Dir  Spd
km/h
Gust
km/h
Spd
kts
Gust
kts
05/09:00pm 9.9 5.4 -0.6 48 4.2 WSW 13 22 7 12 1012.2 1012.3 0.6
05/08:30pm 10.6 4.0 -0.5 46 4.4 WSW 24 33 13 18 1011.9 1012.0 0.6
05/08:00pm 10.7 5.8 -0.7 45 4.5 WSW 15 22 8 12 1011.8 1011.9 0.6
05/07:30pm 11.5 6.9 -1.3 41 5.1 WSW 13 26 7 14 1011.4 1011.5 0.6
05/07:00pm 11.8 6.4 -1.7 39 5.3 W 17 33 9 18 1010.7 1010.8 0.6
05/06:36pm 12.5 4.8 -2.9 34 6.0 WSW 28 46 15 25 1010.2 1010.3 0.6
05/06:30pm 12.3 5.3 -3.1 34 5.9 WSW 24 41 13 22 1010.1 1010.2 0.6
05/06:00pm 12.9 4.3 -2.2 35 6.0 WSW 33 61 18 33 1009.4 1009.5 0.6
05/05:56pm 12.8 5.2 -1.9 36 5.8 WSW 28 48 15 26 1009.6 1009.7 0.6
05/05:30pm 12.2 5.6 -0.6 41 5.2 WSW 24 33 13 18 1009.6 1009.7 0.6
05/05:00pm 12.3 5.7 -0.2 42 5.1 WSW 24 35 13 19 1009.3 1009.4 0.6
05/04:30pm 12.8 4.7 -0.1 41 5.3 WSW 32 52 17 28 1009.3 1009.4 0.6
05/04:13pm 13.1 5.0 -0.2 40 5.5 WSW 32 72 17 39 1008.9 1009.0 0.6
05/04:12pm 13.1 5.8 0.2 41 5.4 WSW 28 54 15 29 1009.1 1009.2 0.6
05/04:00pm 13.4 6.4 -0.3 39 5.7 WSW 26 52 14 28 1008.8 1008.9 0.6
05/03:37pm 13.4 6.2 0.4 41 5.5 SW 28 52 15 28 1008.6 1008.7 0.6
05/03:30pm 13.4 6.2 0.8 42 5.3 WSW 28 41 15 22 1008.6 1008.7 0.6
05/03:00pm 13.2 4.7 0.6 42 5.3 SW 35 54 19 29 1008.2 1008.3 0.4
05/02:30pm 13.2 3.9 0.9 43 5.2 WSW 39 59 21 32 1008.2 1008.3 0.4
05/02:00pm 12.7 5.2 1.4 46 4.8 WSW 30 57 16 31 1008.0 1008.1 0.4
05/01:46pm 12.5 5.1 1.8 48 4.6 WSW 30 56 16 30 1008.4 1008.5 0.4
05/01:30pm 12.4 5.9 2.6 51 4.3 WSW 26 41 14 22 1008.7 1008.8 0.4
05/01:01pm 11.2 3.3 2.5 55 3.8 WSW 33 52 18 28 1009.1 1009.2 0.4
05/01:00pm 11.1 2.8 2.4 55 3.7 WSW 35 52 19 28 1009.1 1009.2 0.4
05/12:31pm 10.8 3.9 2.6 57 3.5 WSW 28 46 15 25 1009.2 1009.3 0.4
05/12:30pm 10.9 4.4 2.7 57 3.5 WSW 26 46 14 25 1009.3 1009.4 0.4
05/12:02pm 10.1 3.0 3.8 65 2.8 WSW 30 48 16 26 1009.4 1009.5 0.4
05/12:00pm 9.8 2.3 3.3 64 2.8 WSW 32 48 17 26 1009.4 1009.5 0.4
05/11:56am 9.5 2.7 3.0 64 2.8 WSW 28 48 15 26 1009.3 1009.4 0.4
05/11:30am 9.1 1.6 3.3 67 2.5 WSW 32 46 17 25 1009.5 1009.6 0.4
05/11:01am 9.3 2.5 3.3 66 2.6 WSW 28 48 15 26 1009.4 1009.5 0.4
05/11:00am 9.4 3.1 4.0 69 2.4 WSW 26 35 14 19 1009.5 1009.6 0.4
05/10:32am 7.7 1.0 3.9 77 1.6 W 28 52 15 28 1009.7 1009.8 0.4
05/10:30am 7.7 1.8 4.1 78 1.6 W 24 52 13 28 1009.6 1009.7 0.4
05/10:00am 7.5 1.2 3.7 77 1.6 WSW 26 44 14 24 1009.3 1009.4 0.2
05/09:32am 8.1 1.7 3.2 71 2.1 WSW 26 46 14 25 1008.8 1008.9 0.0
05/09:30am 8.1 2.0 2.8 69 2.2 WSW 24 41 13 22 1008.7 1008.8 0.0
05/09:00am 9.1 3.5 1.5 59 3.1 SSW 20 30 11 16 1008.5 1008.6 0.2
05/08:30am 9.3 5.1 -0.6 50 3.9 WSW 11 20 6 11 1008.1 1008.2 0.2
05/08:00am 9.2 4.6 -0.9 49 4.0 WSW 13 19 7 10 1007.6 1007.7 0.2
05/07:30am 9.4 3.8 -2.5 43 4.5 W 17 28 9 15 1007.5 1007.6 0.2
05/07:00am 9.3 4.5 -2.6 43 4.5 WSW 13 24 7 13 1007.1 1007.2 0.2
05/06:30am 6.8 2.4 -2.6 51 3.4 W 11 17 6 9 1006.8 1006.9 0.2
05/06:00am 5.3 2.2 -3.0 55 3.0 N 4 6 2 3 1006.8 1006.9 0.2
05/05:30am 5.0 0.9 -2.8 57 2.8 NNW 9 15 5 8 1007.0 1007.1 0.2
05/05:00am 3.7 0.0 -2.5 64 2.2 NE 7 13 4 7 1007.1 1007.2 0.2
05/04:30am 5.7 1.7 -2.6 55 3.0 N 9 22 5 12 1007.3 1007.4 0.2
05/04:00am 6.8 3.0 -3.4 48 3.7 NW 7 11 4 6 1007.4 1007.5 0.2
05/03:30am 7.9 3.0 -3.6 44 4.1 WNW 13 22 7 12 1007.5 1007.6 0.2
05/03:00am 8.3 2.3 -3.2 44 4.2 WNW 19 30 10 16 1008.1 1008.2 0.2
05/02:30am 7.4 2.6 -2.6 49 3.7 WNW 13 20 7 11 1008.9 1009.0 0.2
05/02:00am 7.8 3.0 -2.5 48 3.8 W 13 20 7 11 1009.1 1009.2 0.2
05/01:30am 7.9 3.4 -3.3 45 4.1 W 11 19 6 10 1009.5 1009.6 0.2
05/01:00am 8.0 3.8 -3.5 44 4.2 W 9 20 5 11 1010.0 1010.1 0.2
05/12:30am 8.5 2.8 -4.0 41 4.5 WNW 17 28 9 15 1010.2 1010.3 0.2
05/12:00am 8.6 1.5 -4.2 40 4.6 W 24 37 13 20 1010.3 1010.4 0.2
 
Date/Time
EST
Temp
°C
App
Temp
°C
Dew
Point
°C
Rel
Hum
%
Delta-T
°C
Wind Press
QNH
hPa
Press
MSL
hPa
Rain since
9am
mm
Dir  Spd
km/h
Gust
km/h
Spd
kts
Gust
kts
04/11:30pm 8.9 2.2 -4.6 38 4.8 WNW 22 30 12 16 1010.5 1010.6 0.2
04/11:00pm 8.4 2.7 -3.7 42 4.4 W 17 24 9 13 1010.6 1010.7 0.2
04/10:30pm 8.9 2.7 -4.6 38 4.8 W 19 30 10 16 1010.8 1010.9 0.2
04/10:00pm 8.9 2.7 -4.6 38 4.8 W 19 32 10 17 1010.9 1011.0 0.2
04/09:30pm 9.1 3.7 -4.8 37 4.9 W 15 24 8 13 1011.0 1011.1 0.2
04/09:00pm 9.3 3.8 -5.0 36 5.1 WNW 15 24 8 13 1010.9 1011.0 0.2
04/08:30pm 9.3 3.8 -5.4 35 5.2 W 15 30 8 16 1010.7 1010.8 0.2
04/08:00pm 9.7 4.2 -5.0 35 5.2 WNW 15 28 8 15 1010.6 1010.7 0.2
04/07:30pm 9.9 3.7 -4.8 35 5.3 WNW 19 33 10 18 1010.3 1010.4 0.2
04/07:00pm 10.3 4.4 -5.2 33 5.5 WNW 17 24 9 13 1010.2 1010.3 0.2
04/06:30pm 10.7 4.8 -5.3 32 5.7 WNW 17 32 9 17 1009.8 1009.9 0.2
04/06:00pm 11.3 4.5 -5.2 31 6.0 WNW 22 35 12 19 1009.6 1009.7 0.2
04/05:30pm 11.7 5.3 -4.8 31 6.1 WNW 20 33 11 18 1009.2 1009.3 0.2
04/05:00pm 12.5 5.3 -5.5 28 6.6 WNW 24 41 13 22 1008.6 1008.7 0.2
04/04:30pm 13.3 6.4 -5.8 26 7.0 W 22 39 12 21 1008.2 1008.3 0.2
04/04:00pm 14.3 6.2 -6.5 23 7.6 W 28 39 15 21 1007.5 1007.6 0.2
04/03:30pm 15.1 8.0 -4.8 25 7.6 W 24 39 13 21 1007.1 1007.2 0.2
04/03:00pm 15.7 9.4 -4.2 25 7.8 W 20 33 11 18 1006.9 1007.0 0.2
04/02:30pm 13.8 12.0 7.3 65 3.2 NE 6 15 3 8 1006.9 1007.0 0.2
04/02:00pm 13.0 9.6 7.7 70 2.6 E 15 22 8 12 1006.7 1006.8 0.2
04/01:30pm 13.3 8.9 6.6 64 3.2 ESE 19 26 10 14 1006.6 1006.7 0.2
04/01:00pm 12.8 8.9 7.0 68 2.8 E 17 22 9 12 1006.4 1006.5 0.2
04/12:30pm 12.6 7.8 7.3 70 2.6 E 22 30 12 16 1006.1 1006.2 0.2
04/12:00pm 13.4 8.8 8.3 71 2.6 E 22 28 12 15 1006.0 1006.1 0.0
04/11:30am 14.3 10.4 7.1 62 3.5 E 17 24 9 13 1006.9 1007.0 0.0
04/11:00am 14.6 11.0 8.5 67 3.1 E 17 24 9 13 1007.2 1007.3 0.0
04/10:30am 13.2 11.6 8.1 71 2.5 SE 6 11 3 6 1007.5 1007.6 0.0
04/10:00am 14.7 12.7 7.3 61 3.7 ENE 7 15 4 8 1007.4 1007.5 0.0
04/09:30am 13.6 12.2 7.2 65 3.1 NNW 4 11 2 6 1007.6 1007.7 0.0
04/09:00am 11.1 9.3 7.0 76 2.0 NE 6 9 3 5 1007.8 1007.9 0.0
04/08:30am 8.1 7.3 6.7 91 0.6 CALM 0 0 0 0 1007.7 1007.8 0.0
04/08:00am 4.5 1.4 3.6 94 0.4 SW 9 11 5 6 1007.5 1007.6 0.0
04/07:30am 3.8 1.1 2.9 94 0.4 SW 6 9 3 5 1007.4 1007.5 0.0
04/07:00am 3.6 1.7 2.6 93 0.4 SW 2 7 1 4 1007.7 1007.8 0.0
04/06:30am 4.9 3.6 4.0 94 0.4 CALM 0 6 0 3 1007.9 1008.0 0.0
04/06:00am 4.6 2.8 3.6 93 0.4 E 2 7 1 4 1008.1 1008.2 0.0
04/05:30am 4.1 1.3 2.9 92 0.5 NE 7 13 4 7 1008.1 1008.2 0.0
04/05:00am 4.9 2.7 3.4 90 0.6 W 4 11 2 6 1008.4 1008.5 0.0
04/04:30am 5.0 3.2 3.5 90 0.6 SE 2 6 1 3 1008.5 1008.6 0.0
04/04:00am 4.7 1.9 2.9 88 0.7 NE 7 9 4 5 1008.7 1008.8 0.0
04/03:30am 5.5 3.0 4.0 90 0.6 NNE 6 9 3 5 1009.0 1009.1 0.0
04/03:00am 6.0 3.9 4.0 87 0.9 NE 4 9 2 5 1009.0 1009.1 0.0
04/02:30am 6.4 4.4 4.6 88 0.8 NE 4 9 2 5 1009.0 1009.1 0.0
04/02:00am 6.5 4.2 4.8 89 0.7 SW 6 9 3 5 1009.2 1009.3 0.0
04/01:30am 7.5 5.2 5.0 84 1.1 W 6 13 3 7 1009.7 1009.8 0.0
04/01:00am 7.9 6.6 5.9 87 0.9 E 2 9 1 5 1010.0 1010.1 0.0
04/12:30am 7.8 5.1 5.8 87 0.9 S 9 11 5 6 1010.7 1010.8 0.0
04/12:00am 7.1 4.5 6.0 93 0.5 SSW 9 13 5 7 1011.0 1011.1 0.0
 
Date/Time
EST
Temp
°C
App
Temp
°C
Dew
Point
°C
Rel
Hum
%
Delta-T
°C
Wind Press
QNH
hPa
Press
MSL
hPa
Rain since
9am
mm
Dir  Spd
km/h
Gust
km/h
Spd
kts
Gust
kts
03/11:30pm 7.2 5.0 6.1 93 0.5 S 7 11 4 6 1011.1 1011.2 0.0
03/11:00pm 7.1 5.8 5.9 92 0.5 S 2 7 1 4 1011.3 1011.4 0.0
03/10:30pm 7.7 6.8 6.2 90 0.7 CALM 0 0 0 0 1011.6 1011.7 0.0
03/10:00pm 8.2 6.6 6.2 87 0.9 WNW 4 6 2 3 1012.0 1012.1 0.0
03/09:30pm 8.2 6.0 6.2 87 0.9 SW 7 9 4 5 1012.3 1012.4 0.0
03/09:00pm 8.1 5.9 6.2 88 0.9 SW 7 7 4 4 1012.7 1012.8 0.0
03/08:30pm 8.3 7.4 6.1 86 1.0 CALM 0 0 0 0 1012.9 1013.0 0.0
03/08:00pm 9.0 7.4 6.3 83 1.2 NNE 4 7 2 4 1012.9 1013.0 0.0
03/07:30pm 9.4 7.5 6.8 84 1.2 SSW 6 7 3 4 1013.1 1013.2 0.0
03/07:00pm 9.7 7.4 7.3 85 1.1 SSW 9 15 5 8 1013.0 1013.1 0.0
03/06:30pm 9.8 7.6 7.9 88 0.9 SSW 9 11 5 6 1012.7 1012.8 0.0
03/06:00pm 10.5 10.2 8.8 89 0.8 CALM 0 0 0 0 1012.6 1012.7 0.0
03/05:30pm 10.8 9.7 8.6 86 1.1 NNE 4 9 2 5 1012.5 1012.6 0.0
03/05:00pm 11.3 10.6 8.5 83 1.4 NNE 2 6 1 3 1012.8 1012.9 0.0
03/04:30pm 12.2 11.8 8.3 77 1.9 CALM 0 0 0 0 1012.9 1013.0 0.0
03/04:00pm 12.4 10.9 8.5 77 1.9 NW 6 9 3 5 1012.8 1012.9 0.0
03/03:30pm 12.6 12.2 8.1 74 2.2 CALM 0 0 0 0 1012.9 1013.0 0.0
03/03:00pm 13.2 12.8 8.3 72 2.4 CALM 0 0 0 0 1012.9 1013.0 0.0
03/02:30pm 13.1 12.3 8.0 71 2.5 SW 2 7 1 4 1013.1 1013.2 0.0
03/02:00pm 13.4 12.9 7.8 69 2.8 CALM 0 0 0 0 1013.3 1013.4 0.0
03/01:30pm 13.3 12.2 8.4 72 2.4 NE 4 11 2 6 1013.6 1013.7 0.0
03/01:00pm 13.4 13.1 8.5 72 2.5 CALM 0 0 0 0 1013.9 1014.0 0.0
03/12:30pm 13.4 12.8 7.6 68 2.8 CALM 0 0 0 0 1014.7 1014.8 0.0
03/12:00pm 13.4 12.6 8.0 70 2.7 NNW 2 6 1 3 1015.1 1015.2 0.0
03/11:30am 12.0 10.1 6.7 70 2.5 NE 6 9 3 5 1015.8 1015.8 0.0
03/11:00am 11.3 9.3 6.4 72 2.3 NE 6 9 3 5 1016.1 1016.1 0.0
03/10:30am 10.7 9.2 7.0 78 1.8 ENE 4 7 2 4 1016.6 1016.6 0.0
03/10:00am 9.0 7.7 6.1 82 1.3 E 2 6 1 3 1016.8 1016.8 0.0
03/09:30am 7.5 5.6 6.8 95 0.3 NE 6 7 3 4 1017.0 1017.0 0.0
03/09:00am 5.4 4.3 5.3 99 0.0 CALM 0 4 0 2 1017.3 1017.3 0.0
03/08:30am 3.8 2.4 3.7 99 0.0 CALM 0 6 0 3 1017.4 1017.4 0.0
03/08:00am 2.3 0.7 2.2 99 0.0 CALM 0 0 0 0 1017.6 1017.6 0.0
03/07:30am 1.8 0.1 1.7 99 0.0 CALM 0 0 0 0 1017.8 1017.8 0.0
03/07:00am 0.9 -1.0 0.8 99 0.0 CALM 0 0 0 0 1017.7 1017.7 0.0
03/06:30am 1.2 -0.6 1.1 99 0.0 CALM 0 0 0 0 1017.6 1017.6 0.0
03/06:00am 1.5 -0.3 1.4 99 0.0 CALM 0 0 0 0 1017.6 1017.6 0.0
03/05:30am 1.7 0.0 1.6 99 0.0 CALM 0 0 0 0 1017.8 1017.8 0.0
03/05:00am 1.8 0.1 1.7 99 0.0 CALM 0 0 0 0 1017.9 1017.9 0.0
03/04:30am 1.8 0.1 1.7 99 0.0 CALM 0 0 0 0 1018.0 1018.0 0.0
03/04:00am 1.8 0.1 1.7 99 0.0 CALM 0 0 0 0 1018.2 1018.2 0.0
03/03:30am 2.6 1.0 2.5 99 0.0 CALM 0 0 0 0 1018.4 1018.4 0.0
03/03:00am 2.0 0.3 1.7 98 0.1 CALM 0 0 0 0 1018.6 1018.6 0.0
03/02:30am 1.9 0.2 1.6 98 0.1 CALM 0 0 0 0 1019.0 1019.0 0.0
03/02:00am 2.4 0.7 2.0 97 0.2 CALM 0 0 0 0 1019.4 1019.4 0.0
03/01:30am 2.9 1.3 2.5 97 0.2 CALM 0 0 0 0 1019.8 1019.8 0.0
03/01:00am 3.3 1.7 2.7 96 0.2 CALM 0 0 0 0 1020.3 1020.3 0.0
03/12:30am 3.2 1.6 2.2 93 0.4 CALM 0 0 0 0 1020.7 1020.7 0.0
03/12:00am 4.6 3.2 3.7 94 0.4 CALM 0 0 0 0 1021.1 1021.1 0.0
 
Date/Time
EST
Temp
°C
App
Temp
°C
Dew
Point
°C
Rel
Hum
%
Delta-T
°C
Wind Press
QNH
hPa
Press
MSL
hPa
Rain since
9am
mm
Dir  Spd
km/h
Gust
km/h
Spd
kts
Gust
kts
02/11:30pm 4.3 2.9 3.4 94 0.4 CALM 0 0 0 0 1021.5 1021.5 0.0
02/11:00pm 4.2 2.0 3.2 93 0.4 NNW 4 6 2 3 1021.6 1021.6 0.0
02/10:30pm 4.3 2.8 3.1 92 0.5 CALM 0 0 0 0 1021.7 1021.7 0.0
02/10:00pm 4.7 3.3 3.4 91 0.5 CALM 0 0 0 0 1021.8 1021.8 0.0
02/09:30pm 5.9 4.5 3.7 86 0.9 CALM 0 0 0 0 1022.2 1022.2 0.0

Other formats

Comma delimited format used in spreadsheet applications
http://www.bom.gov.au/fwo/IDN60801/IDN60801.95931.axf

JavaScript Object Notation format (JSON) in row-major order
http://www.bom.gov.au/fwo/IDN60801/IDN60801.95931.json

Data quality

Most of these data are generated automatically and are frequently updated. Quality checks on data are not normally performed. It is possible for incorrect values to appear. Refer to information at About Latest Weather Observations and please check the disclaimer before using these data.